Des Peres, Missouri
Current Conditions -  °F | °C
As of 12:59 PM on Wednesday 26 Nov 2014 (Local Time) from KSTL Reporting Station
Light Snow Light Snow  
Wind Chill: 29°   Ceiling: 700
Heat Index: 36°   Visibility: 0.75mi
Dew Point: 30°   Wind: 9mph
Humidity: 81%   Direction: 130°SE
Pressure: 29.98"   Gusts: NA
Location:  38.5796°N, 90.4197°W
Report Text: KSTL 261859Z 13008KT 3/4SM R30R/4000V5500FT -SN BR BKN007 OVC017 02/M01 A2998 RMK AO2 P0000
Loading
Personal Weather Stations






























Interactive Weather Map New forecast layout! Learn more

10-Day Weather Forecast

Advertisements
Track Severe Weather on mobile